KBDL/BDL METAR and TAF weather

Enter ICAO airport designator
Station Type Date Time Source
KBDL METAR 2022/05/24 12:51 UTC NOAA

KBDL 241251Z 05007KT 10SM FEW200 BKN250 15/04 A3035 RMK AO2 SLP276 T01500044


Station Type Date Time Source
KBDL Decoded METAR 2022/05/24 12:51 UTC NOAA

BRADLEY INTERNATIONAL AIRPORT , CT, United States (KBDL) 41-56N 072-41W 60M
May 24, 2022 - 08:51 AM EDT / 2022.05.24 1251 UTC
Wind: from the NE (050 degrees) at 8 MPH (7 KT):0
Visibility: 10 mile(s):0
Sky conditions: mostly cloudy
Temperature: 59.0 F (15.0 C)
Dew Point: 39.9 F (4.4 C)
Relative Humidity: 49%
Pressure (altimeter): 30.35 in. Hg (1027 hPa)
ob: KBDL 241251Z 05007KT 10SM FEW200 BKN250 15/04 A3035 RMK AO2 SLP276 T01500044
cycle: 13

Station Type Date Time Source
KBDL TAF 2022/05/24 12:24 UTC NOAA

TAF KBDL 241122Z 2412/2518 01007KT P6SM BKN150
FM241800 08004KT P6SM SCT150
FM242300 16007KT P6SM SCT150
FM250500 18003KT P6SM SCT250
FM250600 00000KT P6SM SCT250

Example: see airport list